LOWILCLK

Guest
Details From LOWI - Innsbruck Kranebitten
To LCLK - Larnaca
Flight Number -
Tags decoded
Created
Modified
Stats Distance 1,246 nm / 2,308 km
Max Altitude 0 ft / 0 m
Waypoints 2
Social Downloads 0
Likes 0
Share

Download

Looking for another format? Having issues loading an existing format? Contact us
Advertisement - Login to hide

Notes

Requested: LOWI LCLK

Route

LOWI LCLK

ID Type Via Altitude (ft/m) Position (lat/lon) Dist (leg/tot) Name
O LOWI APT - 0 / 0 47.26023 / 11.34397 - / 0 nm Innsbruck Kranebitten
O LCLK APT - 0 / 0 34.87512 / 33.62483 1245 / 1245 nm Larnaca

Altitude Profile

Advertisement - Login to hide

Weather


0- 5 10 15 20 25 30 35+ Temperature / °C

Clouds and Precipitation
Forecast for 2020-06-02 12:00 UTC. Updated an hour ago

Ground ~20,000 ft ~40,000 ft Winds

LOWI

Details ICAO LOWI (INN)
Name Innsbruck
Region Austria
Timezone Europe/Vienna (UTC+2.0)
Stats Elevation 1,907 ft / 581 m (AMSL)
Location 47.260800° 11.341500°
Runways 3
Magnetic Variation 3.313° E

METAR

LOWI 021020Z VRB05KT 9999 SCT070 22/06 Q1016 NOSIG

Decode

TAF

TAF LOWI 020515Z 0206/0306 27003KT 9999 FEW070 TX25/0214Z TN10/0304Z BECMG 0210/0212 08010KT BECMG 0218/0220 27003KT

Decode

Departure Runways

ID Width Length Bearing (true/mag) Surface Threshold Overrun Markings Lighting
08 148 ft / 45 m 6,548 ft / 1,996 m 80.95° / 77.63° ASPHALT 335 ft / 102 m 0 ft / 0 m PREC-APP CENTERLINE EDGE THRESHOLD REIL-OMNI
08C 125 ft / 38 m 3,671 ft / 1,119 m 81.00° / 77.69° GRASS 0 ft / 0 m 0 ft / 0 m NONE
08L 164 ft / 50 m 1,149 ft / 350 m 81.11° / 77.80° GRASS 0 ft / 0 m 0 ft / 0 m NONE
26 148 ft / 45 m 6,548 ft / 1,996 m 260.96° / 257.65° ASPHALT 0 ft / 0 m 0 ft / 0 m PREC-APP CENTERLINE EDGE THRESHOLD ALSF-II REIL-OMNI
26C 125 ft / 38 m 3,671 ft / 1,119 m 261.01° / 257.70° GRASS 0 ft / 0 m 0 ft / 0 m NONE
26R 164 ft / 50 m 1,149 ft / 350 m 261.11° / 257.80° GRASS 0 ft / 0 m 0 ft / 0 m NONE

LCLK

Details ICAO LCLK (LCA)
Name Larnaca
Region Cyprus
Timezone Asia/Nicosia (UTC+3.0)
Stats Elevation 11 ft / 3 m (AMSL)
Location 34.873800° 33.624000°
Runways 1
Magnetic Variation 5.205° E

METAR

LCLK 021030Z 21017KT 9999 FEW025 27/17 Q1005 NOSIG

Decode

TAF

TAF LCLK 020530Z 0206/0306 14010KT 9999 FEW025 BECMG 0208/0210 22020KT BECMG 0215/0219 28009KT

Decode

Destination Runways

ID Width Length Bearing (true/mag) Surface Threshold Overrun Markings Lighting
04 148 ft / 45 m 9,832 ft / 2,997 m 45.08° / 39.87° ASPHALT 0 ft / 0 m 0 ft / 0 m PREC-APP CENTERLINE EDGE THRESHOLD ALSF-II REIL-OMNI
22 148 ft / 45 m 9,832 ft / 2,997 m 225.09° / 219.89° ASPHALT 627 ft / 191 m 0 ft / 0 m PREC-APP CENTERLINE EDGE THRESHOLD ALSF-II REIL-OMNI

Approach Navaids

Runway Type Ident Frequency Range Bearing (true/mag) Slope Elevation
22 DME ILC 110.30 MHz 18 nm / 33 km - - 20 ft / 6 m (AMSL)
22 LOC-ILS ILC 110.30 MHz 18 nm / 33 km 225.09° / 219.89 ° - 11 ft / 3 m (AMSL)
22 GS ILC 110.30 MHz 10 nm / 19 km 225.09° / 219.89 ° 2.75° 11 ft / 3 m (AMSL)

Popular Alternatives